Time;durP1;ratioP1;P1;durP2;ratioP2;P2;SDS_P1;SDS_P2;PMS_P1;PMS_P2;Temp;Humidity;BMP_temperature;BMP_pressure;BME280_temperature;BME280_humidity;BME280_pressure;Samples;Min_cycle;Max_cycle;Signal;HPM_P1;HPM_P2
2023/06/25 00:00:29;;;;;;;2.15;2.05;;;;;;;;;;5044803;28;20047;-61
2023/06/25 00:02:55;;;;;;;2.28;2.17;;;;;;;;;;5045550;28;20049;-61
2023/06/25 00:05:21;;;;;;;1.90;1.80;;;;;;;;;;5045194;28;20276;-60
2023/06/25 00:07:47;;;;;;;1.92;1.83;;;;;;;;;;5044722;28;20072;-61
2023/06/25 00:10:13;;;;;;;2.13;1.92;;;;;;;;;;5045267;28;20124;-61
2023/06/25 00:12:40;;;;;;;2.00;1.88;;;;;;;;;;5045442;28;20383;-60
2023/06/25 00:15:06;;;;;;;1.92;1.70;;;;;;;;;;5060631;28;20055;-60
2023/06/25 00:17:32;;;;;;;1.70;1.60;;;;;;;;;;5045368;28;20049;-61
2023/06/25 00:19:59;;;;;;;1.80;1.70;;;;;;;;;;5044714;28;20049;-61
2023/06/25 00:22:25;;;;;;;2.28;2.10;;;;;;;;;;5044926;28;20327;-61
2023/06/25 00:24:51;;;;;;;1.95;1.77;;;;;;;;;;5045182;28;20049;-61
2023/06/25 00:27:17;;;;;;;2.08;1.90;;;;;;;;;;5044140;28;20102;-60
2023/06/25 00:29:43;;;;;;;1.83;1.73;;;;;;;;;;5045488;28;20387;-61
2023/06/25 00:32:09;;;;;;;2.10;1.90;;;;;;;;;;5045075;28;20041;-61
2023/06/25 00:34:41;;;;;;;2.25;2.05;;;;;;;;;;5044172;28;20041;-61
2023/06/25 00:37:16;;;;;;;1.90;1.70;;;;;;;;;;5045328;28;20398;-61
2023/06/25 00:39:42;;;;;;;2.50;2.30;;;;;;;;;;5045037;28;20049;-61
2023/06/25 00:42:09;;;;;;;1.95;1.85;;;;;;;;;;5043660;28;20382;-61
2023/06/25 00:44:40;;;;;;;2.15;2.05;;;;;;;;;;5044929;28;20067;-61
2023/06/25 00:47:06;;;;;;;1.75;1.65;;;;;;;;;;5045198;28;20041;-61
2023/06/25 00:49:33;;;;;;;2.33;2.08;;;;;;;;;;5044300;28;20481;-61
2023/06/25 00:52:00;;;;;;;2.83;2.15;;;;;;;;;;5045006;28;20400;-61
2023/06/25 00:54:26;;;;;;;2.30;2.20;;;;;;;;;;5044071;28;20532;-61
2023/06/25 00:56:53;;;;;;;2.03;1.92;;;;;;;;;;5043879;28;20045;-61
2023/06/25 00:59:19;;;;;;;2.55;2.35;;;;;;;;;;5044585;28;20459;-61
2023/06/25 01:01:58;;;;;;;2.60;2.40;;;;;;;;;;5044265;28;20715;-61
2023/06/25 01:04:33;;;;;;;2.13;2.03;;;;;;;;;;5043839;28;20516;-61
2023/06/25 01:07:01;;;;;;;1.92;1.83;;;;;;;;;;5044277;28;20501;-61
2023/06/25 01:09:27;;;;;;;2.58;2.38;;;;;;;;;;5043132;28;20052;-61
2023/06/25 01:12:00;;;;;;;2.45;2.30;;;;;;;;;;5043995;28;20064;-61
2023/06/25 01:14:28;;;;;;;2.58;2.38;;;;;;;;;;5043621;28;20507;-61
2023/06/25 01:16:54;;;;;;;2.55;2.35;;;;;;;;;;5043854;28;20102;-61
2023/06/25 01:19:25;;;;;;;2.40;2.20;;;;;;;;;;5043867;28;20075;-61
2023/06/25 01:21:52;;;;;;;2.45;2.25;;;;;;;;;;5044164;28;20549;-61
2023/06/25 01:24:18;;;;;;;2.03;1.92;;;;;;;;;;5042918;28;20064;-61
2023/06/25 01:26:45;;;;;;;2.78;2.58;;;;;;;;;;5043964;28;20041;-61
2023/06/25 01:29:11;;;;;;;2.00;1.90;;;;;;;;;;5043706;28;20045;-61
2023/06/25 01:31:40;;;;;;;2.40;2.20;;;;;;;;;;5043642;28;20045;-61
2023/06/25 01:34:06;;;;;;;2.58;2.38;;;;;;;;;;5044031;28;20048;-61
2023/06/25 01:36:32;;;;;;;2.20;2.00;;;;;;;;;;5043690;28;20404;-61
2023/06/25 01:38:58;;;;;;;2.75;2.28;;;;;;;;;;5043028;28;20508;-61
2023/06/25 01:41:24;;;;;;;2.42;2.22;;;;;;;;;;5043320;28;20379;-61
2023/06/25 01:43:50;;;;;;;2.47;2.28;;;;;;;;;;5043422;28;20094;-61
2023/06/25 01:46:16;;;;;;;2.45;2.25;;;;;;;;;;5042555;28;20264;-60
2023/06/25 01:48:42;;;;;;;2.03;1.92;;;;;;;;;;5043634;28;20049;-60
2023/06/25 01:51:08;;;;;;;2.83;2.63;;;;;;;;;;5043734;28;20047;-60
2023/06/25 01:53:35;;;;;;;2.63;2.42;;;;;;;;;;5041820;28;20443;-60
2023/06/25 01:56:01;;;;;;;2.53;2.33;;;;;;;;;;5043416;28;20584;-60
2023/06/25 01:58:27;;;;;;;2.55;2.38;;;;;;;;;;5042150;28;20048;-61
2023/06/25 02:00:53;;;;;;;2.38;2.17;;;;;;;;;;5043448;28;20047;-61
2023/06/25 02:03:19;;;;;;;2.50;2.30;;;;;;;;;;5043215;28;20033;-61
2023/06/25 02:05:45;;;;;;;2.88;2.65;;;;;;;;;;5024364;28;20060;-61
2023/06/25 02:08:11;;;;;;;2.80;2.60;;;;;;;;;;5043471;28;20041;-61
2023/06/25 02:10:37;;;;;;;2.58;2.38;;;;;;;;;;5043420;28;20063;-61
2023/06/25 02:13:03;;;;;;;2.95;2.58;;;;;;;;;;5042500;28;20523;-60
2023/06/25 02:15:31;;;;;;;2.42;2.22;;;;;;;;;;5043049;28;20080;-60
2023/06/25 02:17:57;;;;;;;2.33;2.13;;;;;;;;;;5043417;28;20516;-60
2023/06/25 02:20:23;;;;;;;2.50;2.30;;;;;;;;;;5042171;28;20155;-60
2023/06/25 02:22:50;;;;;;;2.38;2.28;;;;;;;;;;5043308;28;20052;-61
2023/06/25 02:25:16;;;;;;;2.30;2.20;;;;;;;;;;5043304;28;20041;-60
2023/06/25 02:27:42;;;;;;;2.50;2.40;;;;;;;;;;5042389;28;20048;-60
2023/06/25 02:30:08;;;;;;;2.55;2.35;;;;;;;;;;5043656;28;20045;-60
2023/06/25 02:32:34;;;;;;;2.28;2.10;;;;;;;;;;5043134;28;20045;-60
2023/06/25 02:35:00;;;;;;;2.38;2.22;;;;;;;;;;5042640;28;20447;-61
2023/06/25 02:37:26;;;;;;;2.38;2.17;;;;;;;;;;5043030;28;20120;-60
2023/06/25 02:39:52;;;;;;;2.13;2.03;;;;;;;;;;5043101;28;20175;-60
2023/06/25 02:42:18;;;;;;;2.58;2.38;;;;;;;;;;5042035;28;20068;-60
2023/06/25 02:44:44;;;;;;;2.80;2.60;;;;;;;;;;5042955;28;20133;-60
2023/06/25 02:47:10;;;;;;;2.67;2.47;;;;;;;;;;5043374;28;20737;-61
2023/06/25 02:49:36;;;;;;;2.53;2.33;;;;;;;;;;5041925;28;20048;-61
2023/06/25 02:52:02;;;;;;;1.85;1.75;;;;;;;;;;5042502;28;20041;-61
2023/06/25 02:54:28;;;;;;;2.47;2.28;;;;;;;;;;5042184;28;20090;-61
2023/06/25 02:56:56;;;;;;;2.20;2.10;;;;;;;;;;5042156;28;20067;-61
2023/06/25 02:59:22;;;;;;;2.40;2.20;;;;;;;;;;5042400;28;20428;-61
2023/06/25 03:01:48;;;;;;;2.35;2.20;;;;;;;;;;5042003;28;20037;-61
2023/06/25 03:04:14;;;;;;;2.28;2.10;;;;;;;;;;5042366;28;20071;-61
2023/06/25 03:06:40;;;;;;;2.00;1.90;;;;;;;;;;5046606;28;20045;-61
2023/06/25 03:09:07;;;;;;;2.60;2.40;;;;;;;;;;5046001;28;20041;-61
2023/06/25 03:11:33;;;;;;;2.60;2.40;;;;;;;;;;5046302;28;20350;-61
2023/06/25 03:14:00;;;;;;;2.63;2.42;;;;;;;;;;5046368;28;20053;-60
2023/06/25 03:16:26;;;;;;;1.95;1.80;;;;;;;;;;5045439;28;20063;-60
2023/06/25 03:18:52;;;;;;;2.25;2.15;;;;;;;;;;5046840;28;20037;-60
2023/06/25 03:21:18;;;;;;;2.38;2.03;;;;;;;;;;5046310;28;20041;-60
2023/06/25 03:23:44;;;;;;;2.13;2.03;;;;;;;;;;5045507;28;20432;-60
2023/06/25 03:26:10;;;;;;;1.85;1.67;;;;;;;;;;5046455;28;20040;-60
2023/06/25 03:28:36;;;;;;;2.10;2.00;;;;;;;;;;5046382;28;20049;-60
2023/06/25 03:31:02;;;;;;;1.92;1.83;;;;;;;;;;5045425;28;20479;-60
2023/06/25 03:33:28;;;;;;;2.10;2.00;;;;;;;;;;5045570;28;20041;-60
2023/06/25 03:35:54;;;;;;;1.95;1.60;;;;;;;;;;5045998;28;20044;-60
2023/06/25 03:38:20;;;;;;;2.10;2.00;;;;;;;;;;5044892;28;20099;-60
2023/06/25 03:40:46;;;;;;;2.20;2.10;;;;;;;;;;5046013;28;20813;-60
2023/06/25 03:43:12;;;;;;;2.20;2.10;;;;;;;;;;5045695;28;20047;-60
2023/06/25 03:45:38;;;;;;;2.03;1.92;;;;;;;;;;5045913;28;20040;-60
2023/06/25 03:48:04;;;;;;;1.70;1.60;;;;;;;;;;5045881;28;20060;-60
2023/06/25 03:50:31;;;;;;;2.20;2.03;;;;;;;;;;5045255;28;20040;-60
2023/06/25 03:52:57;;;;;;;2.17;1.90;;;;;;;;;;5045244;28;20119;-60
2023/06/25 03:55:23;;;;;;;2.60;2.40;;;;;;;;;;5045601;28;20044;-60
2023/06/25 03:57:50;;;;;;;2.20;2.08;;;;;;;;;;5045651;28;20049;-60
2023/06/25 04:00:16;;;;;;;1.90;1.80;;;;;;;;;;5044826;28;20147;-60
2023/06/25 04:02:42;;;;;;;1.92;1.83;;;;;;;;;;5046066;28;20127;-60
2023/06/25 04:05:08;;;;;;;2.03;1.92;;;;;;;;;;5044898;28;20048;-60
2023/06/25 04:07:34;;;;;;;1.83;1.73;;;;;;;;;;5045262;28;20151;-60
2023/06/25 04:10:00;;;;;;;2.33;2.13;;;;;;;;;;5045710;28;20560;-60
2023/06/25 04:12:26;;;;;;;1.90;1.80;;;;;;;;;;5044541;28;20045;-60
2023/06/25 04:14:52;;;;;;;1.85;1.75;;;;;;;;;;5045614;28;20405;-60
2023/06/25 04:17:18;;;;;;;1.67;1.58;;;;;;;;;;5044133;28;20386;-60
2023/06/25 04:19:45;;;;;;;1.70;1.50;;;;;;;;;;5044599;28;20106;-60
2023/06/25 04:22:11;;;;;;;2.00;1.90;;;;;;;;;;5045850;28;20033;-60
2023/06/25 04:24:37;;;;;;;1.98;1.88;;;;;;;;;;5045710;28;20125;-60
2023/06/25 04:27:04;;;;;;;1.52;1.42;;;;;;;;;;5044675;28;20131;-60
2023/06/25 04:29:30;;;;;;;1.67;1.58;;;;;;;;;;5044869;28;20091;-61
2023/06/25 04:31:56;;;;;;;2.00;1.90;;;;;;;;;;5044934;28;20508;-61
2023/06/25 04:34:22;;;;;;;1.85;1.75;;;;;;;;;;5043767;28;20041;-61
2023/06/25 04:36:48;;;;;;;2.20;2.00;;;;;;;;;;5044836;28;20049;-61
2023/06/25 04:39:14;;;;;;;2.38;1.52;;;;;;;;;;5044905;28;20044;-61
2023/06/25 04:41:40;;;;;;;2.00;1.80;;;;;;;;;;5044773;28;20079;-60
2023/06/25 04:44:06;;;;;;;1.73;1.63;;;;;;;;;;5044896;28;20088;-60
2023/06/25 04:46:32;;;;;;;1.70;1.60;;;;;;;;;;5044564;28;20570;-61
2023/06/25 04:48:58;;;;;;;1.63;1.52;;;;;;;;;;5043918;28;20515;-61
2023/06/25 04:51:24;;;;;;;1.25;1.15;;;;;;;;;;5044393;28;20138;-61
2023/06/25 04:53:50;;;;;;;1.27;1.20;;;;;;;;;;5044592;28;20044;-61
2023/06/25 04:56:16;;;;;;;1.10;1.00;;;;;;;;;;5043765;28;20404;-61
2023/06/25 04:58:42;;;;;;;1.50;1.40;;;;;;;;;;5044996;28;20049;-61
2023/06/25 05:01:08;;;;;;;1.75;1.52;;;;;;;;;;5045077;28;20049;-61
2023/06/25 05:03:34;;;;;;;1.40;1.30;;;;;;;;;;5043526;28;20370;-61
2023/06/25 05:06:00;;;;;;;1.30;1.20;;;;;;;;;;5044393;28;20051;-60
2023/06/25 05:08:26;;;;;;;1.10;1.00;;;;;;;;;;5043083;28;20612;-60
2023/06/25 05:10:52;;;;;;;1.40;1.30;;;;;;;;;;5044156;28;20049;-60
2023/06/25 05:13:18;;;;;;;1.30;1.20;;;;;;;;;;5044062;28;20170;-60
2023/06/25 05:15:44;;;;;;;1.30;0.88;;;;;;;;;;5043352;28;20075;-60
2023/06/25 05:18:11;;;;;;;0.90;0.90;;;;;;;;;;5044208;28;20068;-60
2023/06/25 05:20:38;;;;;;;1.10;1.10;;;;;;;;;;5044494;28;20045;-60
2023/06/25 05:23:07;;;;;;;1.30;1.20;;;;;;;;;;5043413;28;20090;-61
2023/06/25 05:25:34;;;;;;;1.10;0.90;;;;;;;;;;5043987;28;20158;-61
2023/06/25 05:28:03;;;;;;;1.13;1.02;;;;;;;;;;5043778;28;20078;-61
2023/06/25 05:30:30;;;;;;;1.13;1.02;;;;;;;;;;5042771;28;20053;-61
2023/06/25 05:32:56;;;;;;;1.23;1.13;;;;;;;;;;5044093;28;20374;-61
2023/06/25 05:35:22;;;;;;;1.15;1.05;;;;;;;;;;5043673;28;20555;-60
2023/06/25 05:37:49;;;;;;;0.70;0.70;;;;;;;;;;5042980;28;20045;-60
2023/06/25 05:40:15;;;;;;;0.90;0.90;;;;;;;;;;5043542;28;20037;-60
2023/06/25 05:42:41;;;;;;;1.15;0.93;;;;;;;;;;5044167;28;20059;-60
2023/06/25 05:45:08;;;;;;;1.48;1.38;;;;;;;;;;5042653;28;20045;-60
2023/06/25 05:47:34;;;;;;;1.80;1.08;;;;;;;;;;5043710;28;20094;-60
2023/06/25 05:50:00;;;;;;;1.50;1.40;;;;;;;;;;5043666;28;20048;-60
2023/06/25 05:52:27;;;;;;;2.60;2.40;;;;;;;;;;5042530;28;20135;-60
2023/06/25 05:54:53;;;;;;;1.95;1.85;;;;;;;;;;5043374;28;20083;-61
2023/06/25 05:57:19;;;;;;;1.20;1.13;;;;;;;;;;5043217;28;20076;-61
2023/06/25 05:59:45;;;;;;;1.70;1.58;;;;;;;;;;5042818;28;20082;-61
2023/06/25 06:02:11;;;;;;;1.60;1.50;;;;;;;;;;5043952;28;20041;-60
2023/06/25 06:04:37;;;;;;;1.13;1.13;;;;;;;;;;5042969;28;20136;-60
2023/06/25 06:07:04;;;;;;;0.90;0.90;;;;;;;;;;5043643;28;20037;-60
2023/06/25 06:09:30;;;;;;;0.82;0.82;;;;;;;;;;5043428;28;20122;-60
2023/06/25 06:11:56;;;;;;;1.80;1.70;;;;;;;;;;5042400;28;20536;-60
2023/06/25 06:14:22;;;;;;;1.45;1.35;;;;;;;;;;5042890;28;20053;-60
2023/06/25 06:16:48;;;;;;;1.50;1.40;;;;;;;;;;5043222;28;20041;-61
2023/06/25 06:19:14;;;;;;;1.70;1.60;;;;;;;;;;5042453;28;20049;-61
2023/06/25 06:21:40;;;;;;;1.58;1.48;;;;;;;;;;5043833;28;20041;-61
2023/06/25 06:24:06;;;;;;;1.48;1.38;;;;;;;;;;5043139;28;20051;-61
2023/06/25 06:26:35;;;;;;;1.80;1.70;;;;;;;;;;5042568;28;20377;-61
2023/06/25 06:29:03;;;;;;;1.70;1.60;;;;;;;;;;5042772;28;20056;-61
2023/06/25 06:31:30;;;;;;;1.80;1.70;;;;;;;;;;5042971;28;20049;-61
2023/06/25 06:33:56;;;;;;;2.15;2.00;;;;;;;;;;5042181;28;20056;-61
2023/06/25 06:36:23;;;;;;;2.78;2.58;;;;;;;;;;5043117;28;20056;-60
2023/06/25 06:38:50;;;;;;;2.67;2.47;;;;;;;;;;5043225;28;20040;-60
2023/06/25 06:41:16;;;;;;;3.33;3.03;;;;;;;;;;5048164;28;20126;-60
2023/06/25 06:43:42;;;;;;;2.17;2.05;;;;;;;;;;5049937;28;20055;-60
2023/06/25 06:46:08;;;;;;;2.67;2.47;;;;;;;;;;5049773;28;20455;-60
2023/06/25 06:48:34;;;;;;;2.50;2.30;;;;;;;;;;5048840;28;20045;-60
2023/06/25 06:51:00;;;;;;;2.70;2.50;;;;;;;;;;5049650;28;20037;-60
2023/06/25 06:53:26;;;;;;;2.35;2.15;;;;;;;;;;5049064;28;20041;-60
2023/06/25 06:55:52;;;;;;;2.45;2.33;;;;;;;;;;5048705;28;20080;-61
2023/06/25 06:58:18;;;;;;;2.72;2.45;;;;;;;;;;5049404;28;20410;-61
2023/06/25 07:00:44;;;;;;;2.70;2.50;;;;;;;;;;5049747;28;20037;-61
2023/06/25 07:03:11;;;;;;;2.08;1.88;;;;;;;;;;5049105;28;20043;-61
2023/06/25 07:05:37;;;;;;;2.75;2.55;;;;;;;;;;5049832;28;20480;-60
2023/06/25 07:08:03;;;;;;;3.10;2.60;;;;;;;;;;5049053;28;20128;-60
2023/06/25 07:10:29;;;;;;;2.00;1.90;;;;;;;;;;5049398;28;20041;-60
2023/06/25 07:12:55;;;;;;;2.38;2.17;;;;;;;;;;5049126;28;20313;-60
2023/06/25 07:15:21;;;;;;;2.90;2.70;;;;;;;;;;5048393;28;20041;-60
2023/06/25 07:17:47;;;;;;;2.97;2.78;;;;;;;;;;5049255;28;20036;-60
2023/06/25 07:20:13;;;;;;;2.97;2.67;;;;;;;;;;5049871;28;20254;-60
2023/06/25 07:22:40;;;;;;;4.20;2.92;;;;;;;;;;5049323;28;20417;-60
2023/06/25 07:25:07;;;;;;;4.53;4.20;;;;;;;;;;5049288;28;20075;-61
2023/06/25 07:27:33;;;;;;;3.53;3.22;;;;;;;;;;5049108;28;20481;-61
2023/06/25 07:29:59;;;;;;;3.75;3.45;;;;;;;;;;5048464;28;20095;-61
2023/06/25 07:32:25;;;;;;;3.40;3.10;;;;;;;;;;5048858;28;20705;-61
2023/06/25 07:34:51;;;;;;;3.42;3.13;;;;;;;;;;5049160;28;20322;-61
2023/06/25 07:37:18;;;;;;;3.67;3.40;;;;;;;;;;5047874;28;20044;-61
2023/06/25 07:39:44;;;;;;;5.05;4.70;;;;;;;;;;5049310;28;20048;-61
2023/06/25 07:42:10;;;;;;;4.40;4.00;;;;;;;;;;5064208;28;20519;-60
2023/06/25 07:44:36;;;;;;;4.20;3.72;;;;;;;;;;5048375;28;20591;-60
2023/06/25 07:47:03;;;;;;;4.63;4.22;;;;;;;;;;5049219;28;20041;-61
2023/06/25 07:49:29;;;;;;;4.60;4.20;;;;;;;;;;5048733;28;20080;-61
2023/06/25 07:51:55;;;;;;;4.22;3.92;;;;;;;;;;5045994;28;20044;-61
2023/06/25 07:54:21;;;;;;;3.67;3.38;;;;;;;;;;5045451;28;20091;-61
2023/06/25 07:56:47;;;;;;;4.10;3.80;;;;;;;;;;5045608;28;20048;-61
2023/06/25 07:59:14;;;;;;;4.00;3.70;;;;;;;;;;5045201;28;20504;-61
2023/06/25 08:01:40;;;;;;;3.58;3.28;;;;;;;;;;5046084;28;20401;-61
2023/06/25 08:04:06;;;;;;;3.42;3.13;;;;;;;;;;5045859;28;20051;-61
2023/06/25 08:06:32;;;;;;;5.38;4.25;;;;;;;;;;5044700;28;20524;-61
2023/06/25 08:08:58;;;;;;;2.92;2.72;;;;;;;;;;5045786;28;20051;-60
2023/06/25 08:11:24;;;;;;;3.75;3.55;;;;;;;;;;5044157;28;20049;-60
2023/06/25 08:13:50;;;;;;;3.70;3.40;;;;;;;;;;5045405;28;20061;-60
2023/06/25 08:16:16;;;;;;;2.75;2.60;;;;;;;;;;5045360;28;20041;-60
2023/06/25 08:18:42;;;;;;;3.10;2.90;;;;;;;;;;5045034;28;20449;-60
2023/06/25 08:21:08;;;;;;;3.85;3.55;;;;;;;;;;5045007;28;20040;-61
2023/06/25 08:23:34;;;;;;;3.53;3.33;;;;;;;;;;5044944;28;20045;-61
2023/06/25 08:26:00;;;;;;;3.22;3.03;;;;;;;;;;5044693;28;20263;-61
2023/06/25 08:28:26;;;;;;;2.83;2.63;;;;;;;;;;5044965;28;20056;-61
2023/06/25 08:30:52;;;;;;;3.80;3.50;;;;;;;;;;5045215;28;20048;-61
2023/06/25 08:33:18;;;;;;;3.25;3.03;;;;;;;;;;5044061;28;20055;-61
2023/06/25 08:35:44;;;;;;;3.55;3.35;;;;;;;;;;5045292;28;20447;-61
2023/06/25 08:38:11;;;;;;;3.03;2.83;;;;;;;;;;5045094;28;20037;-61
2023/06/25 08:40:40;;;;;;;2.67;2.58;;;;;;;;;;5044408;28;20340;-61
2023/06/25 08:43:06;;;;;;;3.38;3.17;;;;;;;;;;5045422;28;20127;-61
2023/06/25 08:45:33;;;;;;;2.80;2.60;;;;;;;;;;5045599;28;20572;-61
2023/06/25 08:48:03;;;;;;;2.70;2.53;;;;;;;;;;5044219;28;20076;-61
2023/06/25 08:50:30;;;;;;;2.93;2.70;;;;;;;;;;5044642;28;20120;-61
2023/06/25 08:52:57;;;;;;;3.33;3.13;;;;;;;;;;5044559;28;20357;-61
2023/06/25 08:55:24;;;;;;;4.03;3.72;;;;;;;;;;5044293;28;20041;-61
2023/06/25 08:57:50;;;;;;;3.28;3.08;;;;;;;;;;5045036;28;20040;-61
2023/06/25 09:00:17;;;;;;;3.63;3.30;;;;;;;;;;5045250;28;20043;-61
2023/06/25 09:02:43;;;;;;;3.70;3.40;;;;;;;;;;5043991;28;20048;-61
2023/06/25 09:05:13;;;;;;;4.22;3.92;;;;;;;;;;5044835;28;20060;-61
2023/06/25 09:07:43;;;;;;;3.58;3.38;;;;;;;;;;5044452;28;20048;-61
2023/06/25 09:10:09;;;;;;;4.43;4.13;;;;;;;;;;5044645;28;20630;-61
2023/06/25 09:12:36;;;;;;;3.45;3.25;;;;;;;;;;5044110;28;20057;-61
2023/06/25 09:15:02;;;;;;;3.38;3.13;;;;;;;;;;5043606;28;20380;-61
2023/06/25 09:17:28;;;;;;;2.88;2.67;;;;;;;;;;5043864;28;20041;-61
2023/06/25 09:19:54;;;;;;;3.13;2.75;;;;;;;;;;5044400;28;20098;-61
2023/06/25 09:22:20;;;;;;;2.97;2.78;;;;;;;;;;5043173;28;20397;-62
2023/06/25 09:24:50;;;;;;;2.92;2.72;;;;;;;;;;5044056;28;20084;-61
2023/06/25 09:27:19;;;;;;;4.00;3.70;;;;;;;;;;5043919;28;20068;-61
2023/06/25 09:29:46;;;;;;;3.17;2.95;;;;;;;;;;5043185;28;20336;-61
2023/06/25 09:32:12;;;;;;;2.80;2.60;;;;;;;;;;5044161;28;20099;-61
2023/06/25 09:34:42;;;;;;;2.50;2.40;;;;;;;;;;5043701;28;20358;-61
2023/06/25 09:37:08;;;;;;;4.32;2.70;;;;;;;;;;5042954;28;20045;-61
2023/06/25 09:39:34;;;;;;;2.50;2.40;;;;;;;;;;5043725;28;20220;-61
2023/06/25 09:42:01;;;;;;;2.38;2.28;;;;;;;;;;5043853;28;20041;-61
2023/06/25 09:44:28;;;;;;;2.65;2.45;;;;;;;;;;5042857;28;20454;-61
2023/06/25 09:47:04;;;;;;;2.45;2.33;;;;;;;;;;5043655;28;20086;-61
2023/06/25 09:49:31;;;;;;;3.03;2.83;;;;;;;;;;5025464;28;20049;-61
2023/06/25 09:52:00;;;;;;;3.15;2.95;;;;;;;;;;5042934;28;20052;-61
2023/06/25 09:54:26;;;;;;;2.90;2.70;;;;;;;;;;5043219;28;20045;-61
2023/06/25 09:56:52;;;;;;;2.88;2.67;;;;;;;;;;5042851;28;20040;-61
2023/06/25 09:59:18;;;;;;;2.95;2.75;;;;;;;;;;5043126;28;20037;-61
2023/06/25 10:01:44;;;;;;;2.47;2.30;;;;;;;;;;5043527;28;20037;-61
2023/06/25 10:04:10;;;;;;;2.67;2.47;;;;;;;;;;5043103;28;20167;-61
2023/06/25 10:06:37;;;;;;;2.58;2.33;;;;;;;;;;5043359;28;20536;-61
2023/06/25 10:09:04;;;;;;;2.70;2.50;;;;;;;;;;5043160;28;20066;-61
2023/06/25 10:11:30;;;;;;;2.78;2.58;;;;;;;;;;5042128;28;20496;-61
2023/06/25 10:13:58;;;;;;;2.90;2.70;;;;;;;;;;5042484;28;20447;-61
2023/06/25 10:16:25;;;;;;;3.35;3.05;;;;;;;;;;5042635;28;20048;-61
2023/06/25 10:18:54;;;;;;;3.33;3.03;;;;;;;;;;5042495;28;20044;-61
2023/06/25 10:21:21;;;;;;;2.90;2.70;;;;;;;;;;5043268;28;20064;-61
2023/06/25 10:23:57;;;;;;;3.20;3.00;;;;;;;;;;5043014;28;20505;-61
2023/06/25 10:26:30;;;;;;;3.05;2.75;;;;;;;;;;5042499;28;20598;-61
2023/06/25 10:28:56;;;;;;;2.83;2.63;;;;;;;;;;5043093;28;20056;-61
2023/06/25 10:31:22;;;;;;;2.75;2.55;;;;;;;;;;5043121;28;20033;-61
2023/06/25 10:33:49;;;;;;;2.90;2.70;;;;;;;;;;5042613;28;20041;-61
2023/06/25 10:36:15;;;;;;;2.17;2.08;;;;;;;;;;5043003;28;20056;-61
2023/06/25 10:38:41;;;;;;;2.78;2.58;;;;;;;;;;5043856;28;20029;-61
2023/06/25 10:41:07;;;;;;;3.20;3.00;;;;;;;;;;5041881;28;20516;-61
2023/06/25 10:43:36;;;;;;;2.95;2.75;;;;;;;;;;5043520;28;20064;-61
2023/06/25 10:46:02;;;;;;;3.95;3.72;;;;;;;;;;5042419;28;20048;-61
2023/06/25 10:48:28;;;;;;;3.25;3.05;;;;;;;;;;5042943;28;20045;-61
2023/06/25 10:50:54;;;;;;;3.28;3.08;;;;;;;;;;5043145;28;20041;-61
2023/06/25 10:53:21;;;;;;;3.53;2.92;;;;;;;;;;5041741;28;20044;-61
2023/06/25 10:55:51;;;;;;;3.30;3.00;;;;;;;;;;5043033;28;20037;-61
2023/06/25 10:58:21;;;;;;;2.88;2.67;;;;;;;;;;5042668;28;20049;-61
2023/06/25 11:00:53;;;;;;;3.25;3.05;;;;;;;;;;5042154;28;20530;-61
2023/06/25 11:03:19;;;;;;;3.10;2.90;;;;;;;;;;5042546;28;20045;-62
2023/06/25 11:05:46;;;;;;;2.40;2.30;;;;;;;;;;5042530;28;20527;-62
2023/06/25 11:08:13;;;;;;;2.65;2.45;;;;;;;;;;5024286;28;20122;-62
2023/06/25 11:10:39;;;;;;;2.55;2.45;;;;;;;;;;5042780;28;20088;-61
2023/06/25 11:13:09;;;;;;;2.92;2.72;;;;;;;;;;5042715;28;20420;-61
2023/06/25 11:15:35;;;;;;;2.97;2.72;;;;;;;;;;5041890;28;20549;-61
2023/06/25 11:18:03;;;;;;;2.80;2.60;;;;;;;;;;5042582;28;20447;-61
2023/06/25 11:20:31;;;;;;;2.83;2.63;;;;;;;;;;5042437;28;20041;-61
2023/06/25 11:23:04;;;;;;;2.90;2.70;;;;;;;;;;5041577;28;20429;-61
2023/06/25 11:25:30;;;;;;;3.22;2.92;;;;;;;;;;5042743;28;20128;-62
2023/06/25 11:28:00;;;;;;;2.40;2.30;;;;;;;;;;5046187;28;20095;-61
2023/06/25 11:30:28;;;;;;;2.65;2.47;;;;;;;;;;5045221;28;20116;-61
2023/06/25 11:32:55;;;;;;;2.08;1.98;;;;;;;;;;5046073;28;20063;-61
2023/06/25 11:35:21;;;;;;;2.38;2.17;;;;;;;;;;5045159;28;20064;-61
2023/06/25 11:37:48;;;;;;;2.75;2.53;;;;;;;;;;5046131;28;20573;-62
2023/06/25 11:40:41;;;;;;;3.00;2.78;;;;;;;;;;5046342;28;20073;-62
2023/06/25 11:43:08;;;;;;;2.85;2.70;;;;;;;;;;5042490;28;20608;-61
2023/06/25 11:45:44;;;;;;;3.10;2.90;;;;;;;;;;5045937;28;20578;-62
2023/06/25 11:48:14;;;;;;;2.55;2.35;;;;;;;;;;5046115;28;20037;-62
2023/06/25 11:50:41;;;;;;;3.17;2.97;;;;;;;;;;5045700;28;20045;-61
2023/06/25 11:53:07;;;;;;;2.70;2.50;;;;;;;;;;5045680;28;20416;-61
2023/06/25 11:55:33;;;;;;;2.33;2.15;;;;;;;;;;5045851;28;20393;-61
2023/06/25 11:57:59;;;;;;;2.42;2.30;;;;;;;;;;5044931;28;20071;-61
2023/06/25 12:00:25;;;;;;;2.50;2.35;;;;;;;;;;5045317;28;20063;-61
2023/06/25 12:02:51;;;;;;;2.72;2.55;;;;;;;;;;5045702;28;20389;-61
2023/06/25 12:05:17;;;;;;;2.47;2.35;;;;;;;;;;5045024;28;20049;-61
2023/06/25 12:07:44;;;;;;;2.35;2.17;;;;;;;;;;5046306;28;20439;-61
2023/06/25 12:10:10;;;;;;;2.50;2.30;;;;;;;;;;5045750;28;20044;-61
2023/06/25 12:12:36;;;;;;;2.42;2.22;;;;;;;;;;5044540;28;20110;-61
2023/06/25 12:15:02;;;;;;;2.28;2.17;;;;;;;;;;5045602;28;20058;-61
2023/06/25 12:17:28;;;;;;;2.50;2.40;;;;;;;;;;5044732;28;20087;-62
2023/06/25 12:19:54;;;;;;;2.10;2.00;;;;;;;;;;5045279;28;20416;-61
2023/06/25 12:22:20;;;;;;;2.15;2.05;;;;;;;;;;5045199;28;20083;-61
2023/06/25 12:24:46;;;;;;;2.60;2.40;;;;;;;;;;5044432;28;20069;-61
2023/06/25 12:27:12;;;;;;;2.30;2.20;;;;;;;;;;5045822;28;20446;-61
2023/06/25 12:29:39;;;;;;;2.58;2.40;;;;;;;;;;5045190;28;20076;-61
2023/06/25 12:32:05;;;;;;;2.47;2.28;;;;;;;;;;5044449;28;20049;-62
2023/06/25 12:34:31;;;;;;;2.63;2.22;;;;;;;;;;5044965;28;20044;-61
2023/06/25 12:36:57;;;;;;;1.70;1.60;;;;;;;;;;5044794;28;20551;-62
2023/06/25 12:39:23;;;;;;;1.90;1.80;;;;;;;;;;5044082;28;20649;-61
2023/06/25 12:41:49;;;;;;;1.60;1.50;;;;;;;;;;5045261;28;20041;-61
2023/06/25 12:44:15;;;;;;;2.10;2.00;;;;;;;;;;5045087;28;20120;-62
2023/06/25 12:46:41;;;;;;;1.85;1.75;;;;;;;;;;5045024;28;20153;-62
2023/06/25 12:49:07;;;;;;;2.10;2.00;;;;;;;;;;5044508;28;20610;-62
2023/06/25 12:51:33;;;;;;;2.17;1.98;;;;;;;;;;5045034;28;20167;-62
2023/06/25 12:53:59;;;;;;;2.47;2.28;;;;;;;;;;5043862;28;20090;-62
2023/06/25 12:56:27;;;;;;;2.30;2.10;;;;;;;;;;5026483;28;20037;-62
2023/06/25 12:58:53;;;;;;;1.92;1.83;;;;;;;;;;5044861;28;20045;-62
2023/06/25 13:01:19;;;;;;;2.30;2.10;;;;;;;;;;5043845;28;20487;-62
2023/06/25 13:03:45;;;;;;;2.20;2.10;;;;;;;;;;5044850;28;20123;-61
2023/06/25 13:06:13;;;;;;;2.47;2.28;;;;;;;;;;5044959;28;20044;-62
2023/06/25 13:08:39;;;;;;;2.25;2.15;;;;;;;;;;5044233;28;20048;-62
2023/06/25 13:11:05;;;;;;;2.05;1.95;;;;;;;;;;5044154;28;20548;-61
2023/06/25 13:13:31;;;;;;;2.42;2.22;;;;;;;;;;5044477;28;20048;-61
2023/06/25 13:15:57;;;;;;;3.22;2.35;;;;;;;;;;5043622;28;20120;-62
2023/06/25 13:18:23;;;;;;;2.90;2.70;;;;;;;;;;5044460;28;20044;-62
2023/06/25 13:20:49;;;;;;;2.97;2.78;;;;;;;;;;5043539;28;20148;-62
2023/06/25 13:23:15;;;;;;;2.05;1.95;;;;;;;;;;5044169;28;20638;-62
2023/06/25 13:25:41;;;;;;;2.30;2.20;;;;;;;;;;5044567;28;20052;-61
2023/06/25 13:28:07;;;;;;;2.47;2.28;;;;;;;;;;5043210;28;20044;-62
2023/06/25 13:30:34;;;;;;;2.65;2.45;;;;;;;;;;5044343;28;20072;-62
2023/06/25 13:33:00;;;;;;;2.33;2.20;;;;;;;;;;5044345;28;20037;-62
2023/06/25 13:35:26;;;;;;;3.03;2.72;;;;;;;;;;5043134;28;20041;-62
2023/06/25 13:37:52;;;;;;;2.58;2.38;;;;;;;;;;5043889;28;20152;-62
2023/06/25 13:40:19;;;;;;;3.70;2.55;;;;;;;;;;5043738;28;20045;-62
2023/06/25 13:42:45;;;;;;;2.72;2.53;;;;;;;;;;5043338;28;20568;-61
2023/06/25 13:45:11;;;;;;;2.97;2.78;;;;;;;;;;5044224;28;20044;-61
2023/06/25 13:47:37;;;;;;;2.80;2.53;;;;;;;;;;5043791;28;20083;-61
2023/06/25 13:50:03;;;;;;;2.38;2.20;;;;;;;;;;5042788;28;20041;-61
2023/06/25 13:52:29;;;;;;;2.97;2.78;;;;;;;;;;5043364;28;20041;-61
2023/06/25 13:54:55;;;;;;;2.90;2.70;;;;;;;;;;5043454;28;20085;-61
2023/06/25 13:57:21;;;;;;;2.47;2.30;;;;;;;;;;5042913;28;20080;-61
2023/06/25 13:59:47;;;;;;;2.47;2.30;;;;;;;;;;5043415;28;20095;-61
2023/06/25 14:02:13;;;;;;;3.00;2.75;;;;;;;;;;5043583;28;20321;-62
2023/06/25 14:04:39;;;;;;;3.40;2.50;;;;;;;;;;5041296;28;20049;-62
2023/06/25 14:07:05;;;;;;;2.67;2.47;;;;;;;;;;5043388;28;20123;-61
2023/06/25 14:09:31;;;;;;;2.90;2.70;;;;;;;;;;5043400;28;20032;-61
2023/06/25 14:11:57;;;;;;;2.53;2.33;;;;;;;;;;5042247;28;20521;-61
2023/06/25 14:14:23;;;;;;;2.72;2.55;;;;;;;;;;5043330;28;20052;-61
2023/06/25 14:16:49;;;;;;;2.38;2.28;;;;;;;;;;5043364;28;20043;-62
2023/06/25 14:19:16;;;;;;;3.20;3.00;;;;;;;;;;5042168;28;20045;-62
2023/06/25 14:21:44;;;;;;;3.70;2.80;;;;;;;;;;5043621;28;20075;-62
2023/06/25 14:24:10;;;;;;;2.38;2.25;;;;;;;;;;5042660;28;20116;-62
2023/06/25 14:26:36;;;;;;;2.83;2.63;;;;;;;;;;5043277;28;20067;-62
2023/06/25 14:29:02;;;;;;;2.88;2.67;;;;;;;;;;5042990;28;20040;-62
2023/06/25 14:31:28;;;;;;;2.10;2.00;;;;;;;;;;5042308;28;20095;-62
2023/06/25 14:33:54;;;;;;;2.20;2.10;;;;;;;;;;5042802;28;20080;-62
2023/06/25 14:36:20;;;;;;;1.98;1.88;;;;;;;;;;5042520;28;20061;-62
2023/06/25 14:38:47;;;;;;;2.08;1.98;;;;;;;;;;5042053;28;20072;-62